sensor_id;sensor_type;location;lat;lon;timestamp;P1;durP1;ratioP1;P2;durP2;ratioP2
5391;SDS011;2719;53.624;9.786;2024-03-02T00:00:26;18.60;;;9.20;;
5391;SDS011;2719;53.624;9.786;2024-03-02T00:02:54;18.67;;;9.87;;
5391;SDS011;2719;53.624;9.786;2024-03-02T00:05:21;17.23;;;9.20;;
5391;SDS011;2719;53.624;9.786;2024-03-02T00:07:52;20.30;;;10.37;;
5391;SDS011;2719;53.624;9.786;2024-03-02T00:10:22;17.83;;;8.60;;
5391;SDS011;2719;53.624;9.786;2024-03-02T00:12:54;18.53;;;9.57;;
5391;SDS011;2719;53.624;9.786;2024-03-02T00:15:29;18.73;;;8.77;;
5391;SDS011;2719;53.624;9.786;2024-03-02T00:18:08;17.67;;;8.67;;
5391;SDS011;2719;53.624;9.786;2024-03-02T00:20:37;18.77;;;8.93;;
5391;SDS011;2719;53.624;9.786;2024-03-02T00:23:05;27.37;;;9.90;;
5391;SDS011;2719;53.624;9.786;2024-03-02T00:25:37;22.03;;;10.83;;
5391;SDS011;2719;53.624;9.786;2024-03-02T00:28:10;21.30;;;9.70;;
5391;SDS011;2719;53.624;9.786;2024-03-02T00:30:46;19.13;;;10.07;;
5391;SDS011;2719;53.624;9.786;2024-03-02T00:33:26;15.63;;;8.13;;
5391;SDS011;2719;53.624;9.786;2024-03-02T00:35:54;18.00;;;9.43;;
5391;SDS011;2719;53.624;9.786;2024-03-02T00:38:21;17.77;;;10.73;;
5391;SDS011;2719;53.624;9.786;2024-03-02T00:40:48;18.30;;;8.70;;
5391;SDS011;2719;53.624;9.786;2024-03-02T00:46:09;14.87;;;8.37;;
5391;SDS011;2719;53.624;9.786;2024-03-02T00:48:38;16.77;;;9.67;;
5391;SDS011;2719;53.624;9.786;2024-03-02T00:51:10;18.70;;;9.10;;
5391;SDS011;2719;53.624;9.786;2024-03-02T00:53:37;18.33;;;9.53;;
5391;SDS011;2719;53.624;9.786;2024-03-02T00:56:04;14.90;;;8.97;;
5391;SDS011;2719;53.624;9.786;2024-03-02T00:58:36;20.47;;;9.10;;
5391;SDS011;2719;53.624;9.786;2024-03-02T01:01:03;21.37;;;9.73;;
5391;SDS011;2719;53.624;9.786;2024-03-02T01:03:30;19.17;;;9.00;;
5391;SDS011;2719;53.624;9.786;2024-03-02T01:05:59;24.00;;;11.53;;
5391;SDS011;2719;53.624;9.786;2024-03-02T01:08:25;19.83;;;10.37;;
5391;SDS011;2719;53.624;9.786;2024-03-02T01:10:52;20.03;;;10.50;;
5391;SDS011;2719;53.624;9.786;2024-03-02T01:13:19;17.80;;;9.70;;
5391;SDS011;2719;53.624;9.786;2024-03-02T01:15:47;22.90;;;11.20;;
5391;SDS011;2719;53.624;9.786;2024-03-02T01:18:13;20.27;;;9.70;;
5391;SDS011;2719;53.624;9.786;2024-03-02T01:20:40;23.80;;;11.20;;
5391;SDS011;2719;53.624;9.786;2024-03-02T01:23:08;21.60;;;9.87;;
5391;SDS011;2719;53.624;9.786;2024-03-02T01:25:35;19.80;;;10.37;;
5391;SDS011;2719;53.624;9.786;2024-03-02T01:28:01;22.70;;;9.60;;
5391;SDS011;2719;53.624;9.786;2024-03-02T01:30:28;19.50;;;10.23;;
5391;SDS011;2719;53.624;9.786;2024-03-02T01:32:55;16.00;;;9.13;;
5391;SDS011;2719;53.624;9.786;2024-03-02T01:35:23;22.53;;;11.33;;
5391;SDS011;2719;53.624;9.786;2024-03-02T01:37:51;23.80;;;11.20;;
5391;SDS011;2719;53.624;9.786;2024-03-02T01:40:19;23.77;;;11.07;;
5391;SDS011;2719;53.624;9.786;2024-03-02T01:42:46;22.30;;;10.60;;
5391;SDS011;2719;53.624;9.786;2024-03-02T01:45:13;26.67;;;12.50;;
5391;SDS011;2719;53.624;9.786;2024-03-02T01:47:39;30.90;;;14.47;;
5391;SDS011;2719;53.624;9.786;2024-03-02T01:50:06;27.43;;;12.80;;
5391;SDS011;2719;53.624;9.786;2024-03-02T01:52:34;24.00;;;11.93;;
5391;SDS011;2719;53.624;9.786;2024-03-02T01:55:01;24.20;;;12.73;;
5391;SDS011;2719;53.624;9.786;2024-03-02T01:57:30;29.43;;;13.47;;
5391;SDS011;2719;53.624;9.786;2024-03-02T01:59:56;24.20;;;11.60;;
5391;SDS011;2719;53.624;9.786;2024-03-02T02:02:23;24.03;;;12.40;;
5391;SDS011;2719;53.624;9.786;2024-03-02T02:04:50;29.30;;;14.40;;
5391;SDS011;2719;53.624;9.786;2024-03-02T02:07:17;27.53;;;13.43;;
5391;SDS011;2719;53.624;9.786;2024-03-02T02:09:44;22.67;;;12.37;;
5391;SDS011;2719;53.624;9.786;2024-03-02T02:12:11;34.97;;;15.43;;
5391;SDS011;2719;53.624;9.786;2024-03-02T02:14:39;34.40;;;16.73;;
5391;SDS011;2719;53.624;9.786;2024-03-02T02:17:12;32.20;;;14.93;;
5391;SDS011;2719;53.624;9.786;2024-03-02T02:19:40;29.17;;;15.23;;
5391;SDS011;2719;53.624;9.786;2024-03-02T02:22:08;26.57;;;13.77;;
5391;SDS011;2719;53.624;9.786;2024-03-02T02:24:34;25.23;;;14.57;;
5391;SDS011;2719;53.624;9.786;2024-03-02T02:27:01;25.40;;;13.43;;
5391;SDS011;2719;53.624;9.786;2024-03-02T02:29:28;30.83;;;13.23;;
5391;SDS011;2719;53.624;9.786;2024-03-02T02:31:54;32.67;;;14.50;;
5391;SDS011;2719;53.624;9.786;2024-03-02T02:34:21;24.50;;;12.90;;
5391;SDS011;2719;53.624;9.786;2024-03-02T02:36:47;26.13;;;13.87;;
5391;SDS011;2719;53.624;9.786;2024-03-02T02:39:16;27.37;;;14.63;;
5391;SDS011;2719;53.624;9.786;2024-03-02T02:41:44;30.23;;;14.60;;
5391;SDS011;2719;53.624;9.786;2024-03-02T02:44:11;27.03;;;14.10;;
5391;SDS011;2719;53.624;9.786;2024-03-02T02:46:39;28.27;;;13.67;;
5391;SDS011;2719;53.624;9.786;2024-03-02T02:49:05;30.90;;;13.30;;
5391;SDS011;2719;53.624;9.786;2024-03-02T02:51:32;29.40;;;14.50;;
5391;SDS011;2719;53.624;9.786;2024-03-02T02:53:59;23.67;;;13.40;;
5391;SDS011;2719;53.624;9.786;2024-03-02T02:56:27;32.73;;;16.30;;
5391;SDS011;2719;53.624;9.786;2024-03-02T02:58:53;26.13;;;13.57;;
5391;SDS011;2719;53.624;9.786;2024-03-02T03:01:20;27.03;;;14.13;;
5391;SDS011;2719;53.624;9.786;2024-03-02T03:03:47;32.00;;;13.57;;
5391;SDS011;2719;53.624;9.786;2024-03-02T03:06:13;28.83;;;16.10;;
5391;SDS011;2719;53.624;9.786;2024-03-02T03:08:40;36.77;;;17.30;;
5391;SDS011;2719;53.624;9.786;2024-03-02T03:11:07;28.83;;;15.77;;
5391;SDS011;2719;53.624;9.786;2024-03-02T03:13:35;26.70;;;15.30;;
5391;SDS011;2719;53.624;9.786;2024-03-02T03:16:01;30.73;;;15.70;;
5391;SDS011;2719;53.624;9.786;2024-03-02T03:18:28;31.13;;;14.77;;
5391;SDS011;2719;53.624;9.786;2024-03-02T03:20:55;29.20;;;15.80;;
5391;SDS011;2719;53.624;9.786;2024-03-02T03:23:22;25.60;;;15.00;;
5391;SDS011;2719;53.624;9.786;2024-03-02T03:25:48;28.73;;;15.10;;
5391;SDS011;2719;53.624;9.786;2024-03-02T03:28:15;30.80;;;15.60;;
5391;SDS011;2719;53.624;9.786;2024-03-02T03:30:43;31.90;;;14.23;;
5391;SDS011;2719;53.624;9.786;2024-03-02T03:33:09;29.60;;;15.63;;
5391;SDS011;2719;53.624;9.786;2024-03-02T03:35:36;30.83;;;15.23;;
5391;SDS011;2719;53.624;9.786;2024-03-02T03:38:03;27.30;;;15.80;;
5391;SDS011;2719;53.624;9.786;2024-03-02T03:40:30;32.70;;;17.37;;
5391;SDS011;2719;53.624;9.786;2024-03-02T03:42:57;30.33;;;15.70;;
5391;SDS011;2719;53.624;9.786;2024-03-02T03:45:24;38.27;;;15.13;;
5391;SDS011;2719;53.624;9.786;2024-03-02T03:47:53;32.17;;;14.30;;
5391;SDS011;2719;53.624;9.786;2024-03-02T03:50:19;30.67;;;14.67;;
5391;SDS011;2719;53.624;9.786;2024-03-02T03:52:46;33.37;;;14.93;;
5391;SDS011;2719;53.624;9.786;2024-03-02T03:55:13;30.40;;;15.50;;
5391;SDS011;2719;53.624;9.786;2024-03-02T03:57:39;31.47;;;15.70;;
5391;SDS011;2719;53.624;9.786;2024-03-02T04:00:07;31.00;;;14.73;;
5391;SDS011;2719;53.624;9.786;2024-03-02T04:02:35;34.10;;;15.03;;
5391;SDS011;2719;53.624;9.786;2024-03-02T04:05:03;31.00;;;15.20;;
5391;SDS011;2719;53.624;9.786;2024-03-02T04:07:33;24.23;;;14.00;;
5391;SDS011;2719;53.624;9.786;2024-03-02T04:10:05;32.70;;;15.97;;
5391;SDS011;2719;53.624;9.786;2024-03-02T04:12:33;30.43;;;15.00;;
5391;SDS011;2719;53.624;9.786;2024-03-02T04:15:00;26.40;;;13.90;;
5391;SDS011;2719;53.624;9.786;2024-03-02T04:17:28;24.80;;;13.57;;
5391;SDS011;2719;53.624;9.786;2024-03-02T04:19:56;28.63;;;14.47;;
5391;SDS011;2719;53.624;9.786;2024-03-02T04:22:24;30.80;;;15.53;;
5391;SDS011;2719;53.624;9.786;2024-03-02T04:24:51;28.80;;;15.23;;
5391;SDS011;2719;53.624;9.786;2024-03-02T04:27:18;31.87;;;15.70;;
5391;SDS011;2719;53.624;9.786;2024-03-02T04:29:44;27.50;;;14.40;;
5391;SDS011;2719;53.624;9.786;2024-03-02T04:32:11;30.00;;;14.70;;
5391;SDS011;2719;53.624;9.786;2024-03-02T04:34:38;33.07;;;15.03;;
5391;SDS011;2719;53.624;9.786;2024-03-02T04:37:04;38.37;;;16.23;;
5391;SDS011;2719;53.624;9.786;2024-03-02T04:39:33;32.53;;;15.10;;
5391;SDS011;2719;53.624;9.786;2024-03-02T04:42:00;31.00;;;15.43;;
5391;SDS011;2719;53.624;9.786;2024-03-02T04:44:27;29.70;;;15.63;;
5391;SDS011;2719;53.624;9.786;2024-03-02T04:46:54;36.33;;;17.37;;
5391;SDS011;2719;53.624;9.786;2024-03-02T04:49:21;28.77;;;15.30;;
5391;SDS011;2719;53.624;9.786;2024-03-02T04:51:47;30.87;;;15.20;;
5391;SDS011;2719;53.624;9.786;2024-03-02T04:54:14;30.67;;;13.53;;
5391;SDS011;2719;53.624;9.786;2024-03-02T04:56:42;25.03;;;13.97;;
5391;SDS011;2719;53.624;9.786;2024-03-02T04:59:14;26.97;;;13.97;;
5391;SDS011;2719;53.624;9.786;2024-03-02T05:01:41;32.00;;;15.23;;
5391;SDS011;2719;53.624;9.786;2024-03-02T05:04:07;30.93;;;15.63;;
5391;SDS011;2719;53.624;9.786;2024-03-02T05:06:36;27.27;;;14.70;;
5391;SDS011;2719;53.624;9.786;2024-03-02T05:09:03;33.20;;;15.97;;
5391;SDS011;2719;53.624;9.786;2024-03-02T05:11:30;25.53;;;13.43;;
5391;SDS011;2719;53.624;9.786;2024-03-02T05:14:29;28.10;;;14.07;;
5391;SDS011;2719;53.624;9.786;2024-03-02T05:16:56;24.03;;;13.07;;
5391;SDS011;2719;53.624;9.786;2024-03-02T05:19:22;26.50;;;13.70;;
5391;SDS011;2719;53.624;9.786;2024-03-02T05:21:50;25.43;;;13.73;;
5391;SDS011;2719;53.624;9.786;2024-03-02T05:24:16;33.20;;;13.70;;
5391;SDS011;2719;53.624;9.786;2024-03-02T05:26:44;30.27;;;14.90;;
5391;SDS011;2719;53.624;9.786;2024-03-02T05:29:10;28.40;;;13.47;;
5391;SDS011;2719;53.624;9.786;2024-03-02T05:31:38;25.90;;;13.30;;
5391;SDS011;2719;53.624;9.786;2024-03-02T05:34:05;25.27;;;13.70;;
5391;SDS011;2719;53.624;9.786;2024-03-02T05:36:32;26.27;;;14.33;;
5391;SDS011;2719;53.624;9.786;2024-03-02T05:38:58;30.77;;;16.20;;
5391;SDS011;2719;53.624;9.786;2024-03-02T05:41:25;36.73;;;15.73;;
5391;SDS011;2719;53.624;9.786;2024-03-02T05:43:51;28.40;;;14.90;;
5391;SDS011;2719;53.624;9.786;2024-03-02T05:46:18;29.20;;;15.03;;
5391;SDS011;2719;53.624;9.786;2024-03-02T05:48:46;30.57;;;15.53;;
5391;SDS011;2719;53.624;9.786;2024-03-02T05:51:13;29.63;;;15.17;;
5391;SDS011;2719;53.624;9.786;2024-03-02T05:53:39;32.70;;;15.20;;
5391;SDS011;2719;53.624;9.786;2024-03-02T05:56:06;31.47;;;14.60;;
5391;SDS011;2719;53.624;9.786;2024-03-02T05:58:33;25.70;;;13.70;;
5391;SDS011;2719;53.624;9.786;2024-03-02T06:01:13;29.13;;;15.17;;
5391;SDS011;2719;53.624;9.786;2024-03-02T06:03:39;27.37;;;14.17;;
5391;SDS011;2719;53.624;9.786;2024-03-02T06:06:07;28.00;;;15.47;;
5391;SDS011;2719;53.624;9.786;2024-03-02T06:08:34;27.17;;;14.90;;
5391;SDS011;2719;53.624;9.786;2024-03-02T06:11:01;26.87;;;13.90;;
5391;SDS011;2719;53.624;9.786;2024-03-02T06:13:27;28.93;;;13.33;;
5391;SDS011;2719;53.624;9.786;2024-03-02T06:15:54;29.10;;;12.83;;
5391;SDS011;2719;53.624;9.786;2024-03-02T06:18:21;28.90;;;15.50;;
5391;SDS011;2719;53.624;9.786;2024-03-02T06:20:47;27.00;;;12.67;;
5391;SDS011;2719;53.624;9.786;2024-03-02T06:23:15;30.17;;;15.47;;
5391;SDS011;2719;53.624;9.786;2024-03-02T06:25:42;25.43;;;12.20;;
5391;SDS011;2719;53.624;9.786;2024-03-02T06:28:08;28.73;;;14.87;;
5391;SDS011;2719;53.624;9.786;2024-03-02T06:30:35;30.67;;;15.17;;
5391;SDS011;2719;53.624;9.786;2024-03-02T06:33:02;32.67;;;14.10;;
5391;SDS011;2719;53.624;9.786;2024-03-02T06:35:29;29.60;;;15.10;;
5391;SDS011;2719;53.624;9.786;2024-03-02T06:37:55;26.07;;;14.40;;
5391;SDS011;2719;53.624;9.786;2024-03-02T06:40:23;26.43;;;13.90;;
5391;SDS011;2719;53.624;9.786;2024-03-02T06:42:50;24.10;;;13.57;;
5391;SDS011;2719;53.624;9.786;2024-03-02T06:45:16;28.10;;;14.70;;
5391;SDS011;2719;53.624;9.786;2024-03-02T06:47:43;24.73;;;13.13;;
5391;SDS011;2719;53.624;9.786;2024-03-02T06:50:10;32.20;;;13.93;;
5391;SDS011;2719;53.624;9.786;2024-03-02T06:52:37;26.50;;;13.73;;
5391;SDS011;2719;53.624;9.786;2024-03-02T06:55:04;21.63;;;9.93;;
5391;SDS011;2719;53.624;9.786;2024-03-02T06:57:33;30.83;;;15.40;;
5391;SDS011;2719;53.624;9.786;2024-03-02T06:59:59;28.93;;;13.67;;
5391;SDS011;2719;53.624;9.786;2024-03-02T07:02:26;28.77;;;14.70;;
5391;SDS011;2719;53.624;9.786;2024-03-02T07:04:53;36.83;;;14.87;;
5391;SDS011;2719;53.624;9.786;2024-03-02T07:07:20;31.10;;;13.80;;
5391;SDS011;2719;53.624;9.786;2024-03-02T07:09:47;23.07;;;12.90;;
5391;SDS011;2719;53.624;9.786;2024-03-02T07:12:13;29.20;;;12.90;;
5391;SDS011;2719;53.624;9.786;2024-03-02T07:14:41;24.80;;;13.97;;
5391;SDS011;2719;53.624;9.786;2024-03-02T07:17:36;31.70;;;14.70;;
5391;SDS011;2719;53.624;9.786;2024-03-02T07:20:03;25.13;;;14.00;;
5391;SDS011;2719;53.624;9.786;2024-03-02T07:22:31;28.27;;;15.07;;
5391;SDS011;2719;53.624;9.786;2024-03-02T07:24:58;27.63;;;14.77;;
5391;SDS011;2719;53.624;9.786;2024-03-02T07:27:24;24.57;;;12.47;;
5391;SDS011;2719;53.624;9.786;2024-03-02T07:29:52;23.80;;;12.27;;
5391;SDS011;2719;53.624;9.786;2024-03-02T07:32:19;29.67;;;13.40;;
5391;SDS011;2719;53.624;9.786;2024-03-02T07:34:46;24.50;;;13.73;;
5391;SDS011;2719;53.624;9.786;2024-03-02T07:37:12;23.70;;;13.80;;
5391;SDS011;2719;53.624;9.786;2024-03-02T07:39:39;30.13;;;14.27;;
5391;SDS011;2719;53.624;9.786;2024-03-02T07:42:06;27.30;;;13.73;;
5391;SDS011;2719;53.624;9.786;2024-03-02T07:44:33;25.97;;;13.17;;
5391;SDS011;2719;53.624;9.786;2024-03-02T07:47:01;25.10;;;13.57;;
5391;SDS011;2719;53.624;9.786;2024-03-02T07:49:27;30.33;;;13.20;;
5391;SDS011;2719;53.624;9.786;2024-03-02T07:51:54;24.90;;;13.23;;
5391;SDS011;2719;53.624;9.786;2024-03-02T07:54:21;27.80;;;13.80;;
5391;SDS011;2719;53.624;9.786;2024-03-02T07:56:47;29.47;;;12.70;;
5391;SDS011;2719;53.624;9.786;2024-03-02T07:59:14;25.67;;;13.80;;
5391;SDS011;2719;53.624;9.786;2024-03-02T08:01:41;26.13;;;13.10;;
5391;SDS011;2719;53.624;9.786;2024-03-02T08:04:09;25.20;;;13.77;;
5391;SDS011;2719;53.624;9.786;2024-03-02T08:06:36;28.93;;;12.77;;
5391;SDS011;2719;53.624;9.786;2024-03-02T08:09:02;21.97;;;13.17;;
5391;SDS011;2719;53.624;9.786;2024-03-02T08:11:34;24.53;;;12.80;;
5391;SDS011;2719;53.624;9.786;2024-03-02T08:14:00;24.63;;;13.70;;
5391;SDS011;2719;53.624;9.786;2024-03-02T08:16:27;23.20;;;13.20;;
5391;SDS011;2719;53.624;9.786;2024-03-02T08:18:54;20.60;;;11.87;;
5391;SDS011;2719;53.624;9.786;2024-03-02T08:21:24;34.27;;;14.20;;
5391;SDS011;2719;53.624;9.786;2024-03-02T08:23:51;33.80;;;13.97;;
5391;SDS011;2719;53.624;9.786;2024-03-02T08:26:17;24.47;;;12.27;;
5391;SDS011;2719;53.624;9.786;2024-03-02T08:28:44;23.13;;;11.73;;
5391;SDS011;2719;53.624;9.786;2024-03-02T08:31:11;29.97;;;13.90;;
5391;SDS011;2719;53.624;9.786;2024-03-02T08:33:37;25.80;;;13.53;;
5391;SDS011;2719;53.624;9.786;2024-03-02T08:36:05;31.03;;;13.50;;
5391;SDS011;2719;53.624;9.786;2024-03-02T08:38:35;26.63;;;12.80;;
5391;SDS011;2719;53.624;9.786;2024-03-02T08:41:02;23.43;;;12.50;;
5391;SDS011;2719;53.624;9.786;2024-03-02T08:43:29;28.57;;;13.17;;
5391;SDS011;2719;53.624;9.786;2024-03-02T08:45:56;18.57;;;10.87;;
5391;SDS011;2719;53.624;9.786;2024-03-02T08:48:23;28.77;;;13.27;;
5391;SDS011;2719;53.624;9.786;2024-03-02T08:50:50;25.90;;;12.87;;
5391;SDS011;2719;53.624;9.786;2024-03-02T08:53:17;23.27;;;12.40;;
5391;SDS011;2719;53.624;9.786;2024-03-02T08:55:45;25.80;;;11.87;;
5391;SDS011;2719;53.624;9.786;2024-03-02T08:58:12;19.67;;;11.80;;
5391;SDS011;2719;53.624;9.786;2024-03-02T09:00:38;30.97;;;13.33;;
5391;SDS011;2719;53.624;9.786;2024-03-02T09:03:05;22.23;;;11.83;;
5391;SDS011;2719;53.624;9.786;2024-03-02T09:05:32;22.10;;;12.20;;
5391;SDS011;2719;53.624;9.786;2024-03-02T09:07:59;20.57;;;10.87;;
5391;SDS011;2719;53.624;9.786;2024-03-02T09:10:25;23.97;;;11.70;;
5391;SDS011;2719;53.624;9.786;2024-03-02T09:12:53;22.97;;;12.67;;
5391;SDS011;2719;53.624;9.786;2024-03-02T09:15:20;27.80;;;11.50;;
5391;SDS011;2719;53.624;9.786;2024-03-02T09:17:47;26.63;;;11.83;;
5391;SDS011;2719;53.624;9.786;2024-03-02T09:20:13;20.70;;;11.10;;
5391;SDS011;2719;53.624;9.786;2024-03-02T09:22:41;21.53;;;12.30;;
5391;SDS011;2719;53.624;9.786;2024-03-02T09:25:08;20.03;;;10.80;;
5391;SDS011;2719;53.624;9.786;2024-03-02T09:27:35;21.10;;;12.07;;
5391;SDS011;2719;53.624;9.786;2024-03-02T09:30:04;22.23;;;11.03;;
5391;SDS011;2719;53.624;9.786;2024-03-02T09:32:33;20.03;;;10.80;;
5391;SDS011;2719;53.624;9.786;2024-03-02T09:35:00;24.80;;;11.37;;
5391;SDS011;2719;53.624;9.786;2024-03-02T09:37:26;18.60;;;10.30;;
5391;SDS011;2719;53.624;9.786;2024-03-02T09:39:53;24.00;;;10.83;;
5391;SDS011;2719;53.624;9.786;2024-03-02T09:42:20;21.67;;;11.30;;
5391;SDS011;2719;53.624;9.786;2024-03-02T09:44:47;21.30;;;10.80;;
5391;SDS011;2719;53.624;9.786;2024-03-02T09:47:15;20.33;;;11.27;;
5391;SDS011;2719;53.624;9.786;2024-03-02T09:49:42;16.40;;;9.50;;
5391;SDS011;2719;53.624;9.786;2024-03-02T09:52:08;16.40;;;9.30;;
5391;SDS011;2719;53.624;9.786;2024-03-02T09:54:36;18.03;;;9.00;;
5391;SDS011;2719;53.624;9.786;2024-03-02T09:57:03;18.50;;;9.40;;
5391;SDS011;2719;53.624;9.786;2024-03-02T09:59:30;18.23;;;9.33;;
5391;SDS011;2719;53.624;9.786;2024-03-02T10:01:57;23.67;;;9.43;;
5391;SDS011;2719;53.624;9.786;2024-03-02T10:04:27;17.00;;;9.27;;
5391;SDS011;2719;53.624;9.786;2024-03-02T10:07:09;16.47;;;8.97;;
5391;SDS011;2719;53.624;9.786;2024-03-02T10:09:37;16.00;;;8.90;;
5391;SDS011;2719;53.624;9.786;2024-03-02T10:12:04;15.90;;;8.37;;
5391;SDS011;2719;53.624;9.786;2024-03-02T10:14:31;14.60;;;8.37;;
5391;SDS011;2719;53.624;9.786;2024-03-02T10:17:01;17.20;;;9.83;;
5391;SDS011;2719;53.624;9.786;2024-03-02T10:19:31;16.80;;;9.13;;
5391;SDS011;2719;53.624;9.786;2024-03-02T10:21:59;17.63;;;10.67;;
5391;SDS011;2719;53.624;9.786;2024-03-02T10:24:28;17.60;;;9.73;;
5391;SDS011;2719;53.624;9.786;2024-03-02T10:27:02;16.03;;;8.47;;
5391;SDS011;2719;53.624;9.786;2024-03-02T10:29:35;18.90;;;9.17;;
5391;SDS011;2719;53.624;9.786;2024-03-02T10:32:03;15.50;;;7.97;;
5391;SDS011;2719;53.624;9.786;2024-03-02T10:34:32;19.50;;;7.63;;
5391;SDS011;2719;53.624;9.786;2024-03-02T10:36:59;15.43;;;9.03;;
5391;SDS011;2719;53.624;9.786;2024-03-02T10:39:26;17.50;;;8.77;;
5391;SDS011;2719;53.624;9.786;2024-03-02T10:41:54;15.60;;;7.63;;
5391;SDS011;2719;53.624;9.786;2024-03-02T10:44:22;13.83;;;8.27;;
5391;SDS011;2719;53.624;9.786;2024-03-02T10:46:49;11.93;;;7.20;;
5391;SDS011;2719;53.624;9.786;2024-03-02T10:49:16;16.77;;;7.80;;
5391;SDS011;2719;53.624;9.786;2024-03-02T10:51:44;13.60;;;7.70;;
5391;SDS011;2719;53.624;9.786;2024-03-02T10:54:11;11.10;;;6.80;;
5391;SDS011;2719;53.624;9.786;2024-03-02T10:56:38;19.67;;;8.20;;
5391;SDS011;2719;53.624;9.786;2024-03-02T10:59:06;21.63;;;7.40;;
5391;SDS011;2719;53.624;9.786;2024-03-02T11:01:43;11.90;;;5.83;;
5391;SDS011;2719;53.624;9.786;2024-03-02T11:04:11;15.47;;;7.07;;
5391;SDS011;2719;53.624;9.786;2024-03-02T11:06:41;13.97;;;7.70;;
5391;SDS011;2719;53.624;9.786;2024-03-02T11:09:14;12.40;;;7.37;;
5391;SDS011;2719;53.624;9.786;2024-03-02T11:11:43;13.40;;;6.83;;
5391;SDS011;2719;53.624;9.786;2024-03-02T11:14:13;11.33;;;5.80;;
5391;SDS011;2719;53.624;9.786;2024-03-02T11:16:42;15.60;;;5.97;;
5391;SDS011;2719;53.624;9.786;2024-03-02T11:19:10;14.97;;;7.13;;
5391;SDS011;2719;53.624;9.786;2024-03-02T11:21:38;12.67;;;7.53;;
5391;SDS011;2719;53.624;9.786;2024-03-02T11:27:02;9.03;;;5.30;;
5391;SDS011;2719;53.624;9.786;2024-03-02T11:29:43;12.93;;;5.73;;
5391;SDS011;2719;53.624;9.786;2024-03-02T11:32:14;16.43;;;6.13;;
5391;SDS011;2719;53.624;9.786;2024-03-02T11:34:42;11.53;;;6.50;;
5391;SDS011;2719;53.624;9.786;2024-03-02T11:37:11;13.90;;;7.67;;
5391;SDS011;2719;53.624;9.786;2024-03-02T11:39:40;15.80;;;6.30;;
5391;SDS011;2719;53.624;9.786;2024-03-02T11:42:08;14.93;;;7.07;;
5391;SDS011;2719;53.624;9.786;2024-03-02T11:44:35;13.90;;;7.20;;
5391;SDS011;2719;53.624;9.786;2024-03-02T11:47:02;14.90;;;6.43;;
5391;SDS011;2719;53.624;9.786;2024-03-02T11:49:37;11.37;;;5.23;;
5391;SDS011;2719;53.624;9.786;2024-03-02T11:52:06;10.40;;;5.70;;
5391;SDS011;2719;53.624;9.786;2024-03-02T11:54:34;13.03;;;7.50;;
5391;SDS011;2719;53.624;9.786;2024-03-02T11:57:05;11.97;;;5.80;;
5391;SDS011;2719;53.624;9.786;2024-03-02T11:59:32;8.80;;;5.20;;
5391;SDS011;2719;53.624;9.786;2024-03-02T12:01:59;13.77;;;6.17;;
5391;SDS011;2719;53.624;9.786;2024-03-02T12:04:27;9.70;;;4.40;;
5391;SDS011;2719;53.624;9.786;2024-03-02T12:06:56;8.83;;;4.13;;
5391;SDS011;2719;53.624;9.786;2024-03-02T12:09:24;7.80;;;3.43;;
5391;SDS011;2719;53.624;9.786;2024-03-02T12:12:00;9.13;;;4.80;;
5391;SDS011;2719;53.624;9.786;2024-03-02T12:14:30;7.50;;;4.00;;
5391;SDS011;2719;53.624;9.786;2024-03-02T12:16:56;9.03;;;4.50;;
5391;SDS011;2719;53.624;9.786;2024-03-02T12:19:24;7.97;;;3.80;;
5391;SDS011;2719;53.624;9.786;2024-03-02T12:21:50;10.30;;;4.90;;
5391;SDS011;2719;53.624;9.786;2024-03-02T12:24:17;10.20;;;4.33;;
5391;SDS011;2719;53.624;9.786;2024-03-02T12:26:44;7.63;;;4.23;;
5391;SDS011;2719;53.624;9.786;2024-03-02T12:29:12;8.63;;;4.13;;
5391;SDS011;2719;53.624;9.786;2024-03-02T12:31:41;7.83;;;4.10;;
5391;SDS011;2719;53.624;9.786;2024-03-02T12:34:08;10.20;;;4.37;;
5391;SDS011;2719;53.624;9.786;2024-03-02T12:36:36;10.47;;;5.20;;
5391;SDS011;2719;53.624;9.786;2024-03-02T12:39:04;7.80;;;3.90;;
5391;SDS011;2719;53.624;9.786;2024-03-02T12:41:30;8.67;;;4.47;;
5391;SDS011;2719;53.624;9.786;2024-03-02T12:43:56;5.13;;;3.53;;
5391;SDS011;2719;53.624;9.786;2024-03-02T12:46:23;7.60;;;4.00;;
5391;SDS011;2719;53.624;9.786;2024-03-02T12:48:52;10.33;;;4.67;;
5391;SDS011;2719;53.624;9.786;2024-03-02T12:51:19;6.43;;;3.30;;
5391;SDS011;2719;53.624;9.786;2024-03-02T12:53:52;8.53;;;4.20;;
5391;SDS011;2719;53.624;9.786;2024-03-02T12:56:19;7.13;;;3.60;;
5391;SDS011;2719;53.624;9.786;2024-03-02T12:58:46;7.33;;;3.90;;
5391;SDS011;2719;53.624;9.786;2024-03-02T13:01:14;10.83;;;4.87;;
5391;SDS011;2719;53.624;9.786;2024-03-02T13:03:44;8.40;;;4.13;;
5391;SDS011;2719;53.624;9.786;2024-03-02T13:06:11;10.33;;;3.40;;
5391;SDS011;2719;53.624;9.786;2024-03-02T13:08:38;6.03;;;3.47;;
5391;SDS011;2719;53.624;9.786;2024-03-02T13:11:05;4.90;;;3.40;;
5391;SDS011;2719;53.624;9.786;2024-03-02T13:13:32;7.33;;;2.80;;
5391;SDS011;2719;53.624;9.786;2024-03-02T13:15:59;7.10;;;3.70;;
5391;SDS011;2719;53.624;9.786;2024-03-02T13:18:28;10.57;;;4.10;;
5391;SDS011;2719;53.624;9.786;2024-03-02T13:20:56;9.27;;;4.83;;
5391;SDS011;2719;53.624;9.786;2024-03-02T13:23:24;7.83;;;3.73;;
5391;SDS011;2719;53.624;9.786;2024-03-02T13:25:51;6.97;;;3.83;;
5391;SDS011;2719;53.624;9.786;2024-03-02T13:28:17;7.80;;;4.37;;
5391;SDS011;2719;53.624;9.786;2024-03-02T13:30:44;8.93;;;3.93;;
5391;SDS011;2719;53.624;9.786;2024-03-02T13:33:11;9.37;;;4.33;;
5391;SDS011;2719;53.624;9.786;2024-03-02T13:35:37;10.57;;;4.93;;
5391;SDS011;2719;53.624;9.786;2024-03-02T13:38:04;9.83;;;5.17;;
5391;SDS011;2719;53.624;9.786;2024-03-02T13:40:32;8.83;;;3.90;;
5391;SDS011;2719;53.624;9.786;2024-03-02T13:43:00;7.33;;;3.93;;
5391;SDS011;2719;53.624;9.786;2024-03-02T13:45:27;7.37;;;3.60;;
5391;SDS011;2719;53.624;9.786;2024-03-02T13:47:54;7.70;;;4.10;;
5391;SDS011;2719;53.624;9.786;2024-03-02T13:50:20;10.37;;;4.53;;
5391;SDS011;2719;53.624;9.786;2024-03-02T13:52:47;8.90;;;3.80;;
5391;SDS011;2719;53.624;9.786;2024-03-02T13:55:13;7.40;;;4.50;;
5391;SDS011;2719;53.624;9.786;2024-03-02T13:57:42;7.93;;;3.50;;
5391;SDS011;2719;53.624;9.786;2024-03-02T14:00:09;11.90;;;4.50;;
5391;SDS011;2719;53.624;9.786;2024-03-02T14:02:37;9.10;;;4.67;;
5391;SDS011;2719;53.624;9.786;2024-03-02T14:05:04;14.00;;;5.33;;
5391;SDS011;2719;53.624;9.786;2024-03-02T14:07:32;8.40;;;4.77;;
5391;SDS011;2719;53.624;9.786;2024-03-02T14:09:59;8.10;;;4.20;;
5391;SDS011;2719;53.624;9.786;2024-03-02T14:12:25;10.53;;;4.50;;
5391;SDS011;2719;53.624;9.786;2024-03-02T14:14:53;7.77;;;4.30;;
5391;SDS011;2719;53.624;9.786;2024-03-02T14:17:23;12.17;;;3.93;;
5391;SDS011;2719;53.624;9.786;2024-03-02T14:19:49;16.07;;;5.13;;
5391;SDS011;2719;53.624;9.786;2024-03-02T14:22:17;10.30;;;4.87;;
5391;SDS011;2719;53.624;9.786;2024-03-02T14:24:43;6.53;;;3.63;;
5391;SDS011;2719;53.624;9.786;2024-03-02T14:27:11;9.00;;;4.90;;
5391;SDS011;2719;53.624;9.786;2024-03-02T14:29:39;7.63;;;4.13;;
5391;SDS011;2719;53.624;9.786;2024-03-02T14:32:07;9.80;;;4.27;;
5391;SDS011;2719;53.624;9.786;2024-03-02T14:34:34;10.03;;;4.37;;
5391;SDS011;2719;53.624;9.786;2024-03-02T14:37:00;10.80;;;4.80;;
5391;SDS011;2719;53.624;9.786;2024-03-02T14:39:27;12.50;;;6.40;;
5391;SDS011;2719;53.624;9.786;2024-03-02T14:41:54;10.57;;;5.37;;
5391;SDS011;2719;53.624;9.786;2024-03-02T14:44:21;9.57;;;5.33;;
5391;SDS011;2719;53.624;9.786;2024-03-02T14:46:48;9.07;;;4.63;;
5391;SDS011;2719;53.624;9.786;2024-03-02T14:49:16;9.13;;;5.13;;
5391;SDS011;2719;53.624;9.786;2024-03-02T14:51:43;12.93;;;6.33;;
5391;SDS011;2719;53.624;9.786;2024-03-02T14:54:10;9.00;;;4.20;;
5391;SDS011;2719;53.624;9.786;2024-03-02T14:56:37;12.90;;;6.17;;
5391;SDS011;2719;53.624;9.786;2024-03-02T14:59:03;9.17;;;5.13;;
5391;SDS011;2719;53.624;9.786;2024-03-02T15:01:30;10.17;;;5.50;;
5391;SDS011;2719;53.624;9.786;2024-03-02T15:03:57;9.37;;;5.13;;